Time;durP1;ratioP1;P1;durP2;ratioP2;P2;SDS_P1;SDS_P2;PMS_P1;PMS_P2;Temp;Humidity;BMP_temperature;BMP_pressure;BME280_temperature;BME280_humidity;BME280_pressure;Samples;Min_cycle;Max_cycle;Signal;HPM_P1;HPM_P2
2021/01/07 00:01:19;;;;;;;18.65;11.35;;;1.60;88.60;;;;;;5031955;28;20037;-63
2021/01/07 00:03:44;;;;;;;17.77;12.15;;;1.70;88.30;;;;;;5032001;28;20034;-57
2021/01/07 00:06:11;;;;;;;17.05;11.95;;;1.70;88.70;;;;;;5012510;28;20048;-61
2021/01/07 00:08:37;;;;;;;16.80;11.90;;;1.70;88.40;;;;;;5020156;28;20063;-63
2021/01/07 00:11:04;;;;;;;15.82;11.20;;;1.70;88.40;;;;;;5031097;28;20057;-62
2021/01/07 00:13:30;;;;;;;15.75;11.98;;;1.80;87.90;;;;;;5013741;28;20465;-59
2021/01/07 00:15:56;;;;;;;20.48;13.48;;;1.80;87.70;;;;;;5031155;28;20116;-63
2021/01/07 00:18:21;;;;;;;19.58;12.05;;;1.80;89.50;;;;;;5031587;28;20370;-58
2021/01/07 00:20:47;;;;;;;17.20;11.55;;;1.90;87.00;;;;;;5031054;28;20037;-61
2021/01/07 00:23:13;;;;;;;19.85;12.90;;;1.80;87.30;;;;;;5015145;28;20037;-64
2021/01/07 00:25:46;;;;;;;21.48;13.05;;;1.50;88.20;;;;;;5015877;28;20029;-63
2021/01/07 00:28:11;;;;;;;21.30;13.00;;;1.50;88.90;;;;;;5033482;28;20110;-63
2021/01/07 00:30:37;;;;;;;17.98;12.40;;;1.50;89.10;;;;;;5031927;28;20045;-59
2021/01/07 00:33:02;;;;;;;21.38;12.98;;;1.50;88.70;;;;;;5014978;28;20613;-59
2021/01/07 00:35:28;;;;;;;21.05;12.98;;;1.50;88.80;;;;;;5014583;28;20449;-59
2021/01/07 00:37:54;;;;;;;19.92;13.48;;;1.70;87.80;;;;;;5023288;28;20037;-62
2021/01/07 00:40:19;;;;;;;19.63;12.80;;;1.80;87.50;;;;;;5025585;28;20037;-62
2021/01/07 00:42:45;;;;;;;21.63;12.85;;;1.60;88.40;;;;;;5022562;28;20050;-59
2021/01/07 00:45:11;;;;;;;19.92;12.80;;;1.60;88.90;;;;;;5003454;28;20045;-60
2021/01/07 00:47:36;;;;;;;19.33;12.60;;;1.60;88.60;;;;;;5021870;28;20564;-62
2021/01/07 00:50:03;;;;;;;19.05;12.93;;;1.60;88.80;;;;;;5025526;28;20041;-62
2021/01/07 00:52:28;;;;;;;19.40;13.20;;;1.60;88.50;;;;;;5005382;28;20038;-63
2021/01/07 00:54:54;;;;;;;20.23;13.13;;;1.60;88.40;;;;;;5021207;28;20034;-61
2021/01/07 00:57:19;;;;;;;27.27;13.13;;;1.70;87.90;;;;;;5014898;28;20038;-61
2021/01/07 00:59:45;;;;;;;18.48;12.98;;;1.80;87.00;;;;;;5018375;28;20057;-60
2021/01/07 01:02:10;;;;;;;17.67;12.35;;;1.70;87.80;;;;;;5031481;28;20041;-62
2021/01/07 01:04:36;;;;;;;18.40;12.32;;;1.60;87.70;;;;;;5031598;28;20068;-61
2021/01/07 01:07:02;;;;;;;17.30;12.02;;;1.60;87.80;;;;;;5031802;28;20055;-60
2021/01/07 01:09:27;;;;;;;19.52;12.93;;;1.50;87.70;;;;;;5031451;28;20049;-58
2021/01/07 01:11:53;;;;;;;18.45;12.70;;;1.60;88.10;;;;;;5022743;28;20066;-58
2021/01/07 01:14:20;;;;;;;19.02;13.15;;;1.70;87.50;;;;;;5022289;28;20033;-59
2021/01/07 01:16:47;;;;;;;18.60;12.32;;;1.70;86.80;;;;;;5031725;28;20127;-61
2021/01/07 01:19:14;;;;;;;18.50;12.35;;;1.60;87.50;;;;;;5030994;28;20036;-60
2021/01/07 01:21:39;;;;;;;17.77;12.02;;;1.60;87.60;;;;;;5032158;28;20484;-60
2021/01/07 01:24:05;;;;;;;18.05;11.57;;;1.60;87.30;;;;;;5031855;28;20071;-60
2021/01/07 01:26:31;;;;;;;15.30;11.60;;;1.60;87.30;;;;;;5031152;28;20063;-61
2021/01/07 01:28:57;;;;;;;20.20;13.05;;;1.80;86.80;;;;;;5032218;28;20049;-60
2021/01/07 01:31:22;;;;;;;20.50;12.88;;;1.70;86.70;;;;;;5031421;28;20518;-61
2021/01/07 01:33:48;;;;;;;17.90;12.60;;;1.70;87.10;;;;;;5031837;28;20045;-60
2021/01/07 01:36:13;;;;;;;19.00;12.07;;;1.70;86.80;;;;;;5031324;28;20053;-62
2021/01/07 01:38:39;;;;;;;17.52;11.65;;;1.60;87.10;;;;;;5031363;28;20129;-60
2021/01/07 01:41:06;;;;;;;19.70;13.20;;;1.60;87.20;;;;;;5030581;28;20377;-60
2021/01/07 01:43:34;;;;;;;18.83;12.85;;;1.40;87.40;;;;;;5034611;28;20080;-61
2021/01/07 01:45:59;;;;;;;18.83;12.63;;;1.50;87.50;;;;;;5034852;28;20057;-58
2021/01/07 01:48:26;;;;;;;17.50;12.32;;;1.60;87.30;;;;;;5035234;28;20057;-62
2021/01/07 01:50:53;;;;;;;20.25;13.32;;;1.60;87.50;;;;;;5034916;28;20033;-59
2021/01/07 01:53:20;;;;;;;19.40;12.40;;;1.60;86.90;;;;;;5017532;28;20048;-60
2021/01/07 01:55:47;;;;;;;18.75;12.55;;;1.60;86.70;;;;;;5035170;28;20041;-62
2021/01/07 01:58:14;;;;;;;19.83;13.20;;;1.50;87.10;;;;;;5035863;28;20033;-60
2021/01/07 02:00:40;;;;;;;20.38;13.27;;;1.50;87.00;;;;;;5028322;28;20049;-60
2021/01/07 02:03:12;;;;;;;18.02;12.52;;;1.40;87.40;;;;;;5034119;28;20040;-64
2021/01/07 02:05:39;;;;;;;19.05;12.75;;;1.60;86.80;;;;;;5023127;28;20470;-60
2021/01/07 02:08:06;;;;;;;18.58;13.40;;;1.60;86.50;;;;;;5034838;28;20052;-60
2021/01/07 02:10:33;;;;;;;20.10;13.25;;;1.50;86.70;;;;;;5034493;28;20069;-62
2021/01/07 02:12:59;;;;;;;17.17;11.88;;;1.60;86.70;;;;;;5034755;28;20037;-58
2021/01/07 02:15:25;;;;;;;16.65;12.43;;;1.70;86.40;;;;;;5016837;28;20150;-61
2021/01/07 02:17:51;;;;;;;21.52;12.90;;;1.60;86.40;;;;;;5034866;28;20485;-60
2021/01/07 02:20:23;;;;;;;19.40;11.93;;;1.60;86.20;;;;;;5034630;28;20164;-60
2021/01/07 02:22:53;;;;;;;17.45;11.65;;;1.70;86.50;;;;;;5035073;28;20026;-62
2021/01/07 02:25:19;;;;;;;19.85;12.90;;;1.70;86.00;;;;;;5000083;28;20125;-61
2021/01/07 02:27:45;;;;;;;21.90;13.40;;;1.60;86.30;;;;;;5034170;28;20037;-67
2021/01/07 02:30:12;;;;;;;22.40;13.15;;;1.60;85.90;;;;;;5034344;28;20049;-60
2021/01/07 02:32:37;;;;;;;18.85;13.50;;;1.60;86.10;;;;;;5016753;28;20179;-61
2021/01/07 02:35:03;;;;;;;18.92;12.23;;;1.60;85.90;;;;;;5034156;28;20555;-60
2021/01/07 02:37:29;;;;;;;20.33;11.50;;;1.70;85.60;;;;;;5034273;28;20030;-60
2021/01/07 02:39:54;;;;;;;17.30;12.50;;;1.80;84.80;;;;;;5016284;28;20412;-61
2021/01/07 02:42:20;;;;;;;17.17;11.63;;;1.80;84.40;;;;;;5033932;28;20082;-63
2021/01/07 02:44:45;;;;;;;19.75;11.45;;;1.70;84.70;;;;;;5034260;28;20121;-60
2021/01/07 02:47:11;;;;;;;18.10;12.40;;;1.80;84.20;;;;;;5016525;28;20046;-59
2021/01/07 02:49:37;;;;;;;18.00;11.57;;;1.70;84.40;;;;;;5016076;28;20037;-61
2021/01/07 02:52:02;;;;;;;17.20;11.20;;;1.70;84.20;;;;;;5033708;28;20038;-63
2021/01/07 02:54:29;;;;;;;17.60;11.70;;;1.70;84.60;;;;;;5033774;28;20068;-58
2021/01/07 02:56:55;;;;;;;16.33;11.50;;;1.80;83.90;;;;;;5016384;28;20033;-61
2021/01/07 02:59:20;;;;;;;16.00;11.60;;;1.80;83.90;;;;;;5033427;28;20037;-60
2021/01/07 03:01:46;;;;;;;15.70;10.77;;;1.70;84.10;;;;;;4999591;28;20207;-55
2021/01/07 03:04:11;;;;;;;15.07;10.70;;;1.80;84.00;;;;;;5016004;28;20595;-61
2021/01/07 03:06:37;;;;;;;15.27;11.25;;;1.70;84.10;;;;;;5016330;28;20033;-58
2021/01/07 03:09:03;;;;;;;16.48;10.73;;;1.80;83.80;;;;;;5033801;28;20045;-61
2021/01/07 03:11:29;;;;;;;16.42;12.20;;;1.80;83.20;;;;;;5033624;28;20068;-60
2021/01/07 03:13:54;;;;;;;13.88;9.80;;;2.00;82.70;;;;;;5015878;28;20053;-61
2021/01/07 03:16:20;;;;;;;16.80;10.63;;;1.90;83.10;;;;;;5033399;28;20508;-61
2021/01/07 03:18:46;;;;;;;14.57;10.52;;;1.80;82.90;;;;;;5033619;28;20357;-60
2021/01/07 03:21:11;;;;;;;13.80;9.95;;;1.80;83.30;;;;;;5015803;28;20059;-59
2021/01/07 03:23:37;;;;;;;14.57;9.57;;;1.70;83.30;;;;;;5033100;28;20057;-63
2021/01/07 03:26:02;;;;;;;15.35;10.35;;;1.70;83.40;;;;;;5033285;28;20052;-58
2021/01/07 03:28:28;;;;;;;14.80;9.65;;;1.70;83.20;;;;;;5033551;28;20038;-58
2021/01/07 03:30:54;;;;;;;14.13;9.70;;;1.70;83.20;;;;;;5033565;28;20068;-60
2021/01/07 03:33:19;;;;;;;14.43;9.52;;;1.60;83.30;;;;;;5015351;28;20033;-60
2021/01/07 03:35:45;;;;;;;13.45;9.73;;;1.70;83.20;;;;;;5033030;28;20128;-61
2021/01/07 03:38:10;;;;;;;14.10;9.15;;;1.60;83.40;;;;;;5015275;28;20483;-60
2021/01/07 03:40:36;;;;;;;15.43;9.23;;;1.60;83.60;;;;;;5032939;28;20044;-61
2021/01/07 03:43:02;;;;;;;13.73;9.45;;;1.50;83.60;;;;;;5033146;28;20158;-61
2021/01/07 03:45:27;;;;;;;13.52;9.15;;;1.50;83.60;;;;;;5032256;28;20038;-58
2021/01/07 03:47:54;;;;;;;14.88;9.10;;;1.50;83.70;;;;;;5029879;28;20088;-62
2021/01/07 03:50:20;;;;;;;14.10;8.80;;;1.60;83.40;;;;;;5013686;28;20033;-61
2021/01/07 03:52:45;;;;;;;12.13;8.68;;;1.70;83.10;;;;;;5007943;28;20045;-60
2021/01/07 03:55:11;;;;;;;11.95;8.23;;;1.70;82.90;;;;;;5032613;28;20053;-59
2021/01/07 03:57:37;;;;;;;13.63;9.35;;;1.70;82.70;;;;;;5032757;28;20087;-61
2021/01/07 04:00:05;;;;;;;12.88;8.85;;;1.60;82.80;;;;;;5032580;28;20091;-62
2021/01/07 04:02:31;;;;;;;13.63;9.45;;;1.70;83.10;;;;;;5032685;28;20048;-57
2021/01/07 04:04:56;;;;;;;13.27;9.10;;;1.70;82.60;;;;;;5031949;28;20037;-60
2021/01/07 04:07:22;;;;;;;11.65;9.07;;;1.60;83.00;;;;;;5031719;28;20029;-61
2021/01/07 04:09:47;;;;;;;13.48;9.23;;;1.70;82.80;;;;;;5031348;28;20069;-61
2021/01/07 04:12:13;;;;;;;14.95;9.63;;;1.60;83.40;;;;;;5028185;28;20037;-57
2021/01/07 04:14:39;;;;;;;12.27;8.57;;;1.60;83.10;;;;;;5018749;28;20045;-60
2021/01/07 04:17:04;;;;;;;12.95;9.05;;;1.50;83.10;;;;;;5026990;28;20045;-59
2021/01/07 04:19:30;;;;;;;13.02;8.23;;;1.60;82.80;;;;;;5032439;28;20045;-59
2021/01/07 04:21:55;;;;;;;12.20;9.35;;;1.80;82.00;;;;;;5018131;28;20045;-57
2021/01/07 04:24:21;;;;;;;13.05;8.20;;;1.70;82.20;;;;;;5028466;28;20401;-58
2021/01/07 04:26:46;;;;;;;13.13;8.25;;;1.70;82.40;;;;;;5019242;28;20045;-61
2021/01/07 04:29:12;;;;;;;11.70;8.15;;;1.60;82.70;;;;;;5021799;28;20120;-58
2021/01/07 04:31:39;;;;;;;12.43;8.50;;;1.60;83.10;;;;;;5026782;28;20041;-61
2021/01/07 04:34:05;;;;;;;11.20;8.20;;;1.60;83.10;;;;;;4997711;28;20045;-58
2021/01/07 04:36:30;;;;;;;11.75;8.38;;;1.50;83.30;;;;;;5027496;28;20112;-59
2021/01/07 04:38:56;;;;;;;12.30;8.90;;;1.60;83.00;;;;;;5031028;28;20128;-60
2021/01/07 04:41:22;;;;;;;12.85;8.82;;;1.60;83.40;;;;;;5020198;28;20088;-58
2021/01/07 04:43:58;;;;;;;10.98;7.85;;;1.60;83.40;;;;;;5028693;28;20052;-61
2021/01/07 04:46:24;;;;;;;13.90;8.80;;;1.50;83.20;;;;;;4999071;28;20108;-60
2021/01/07 04:48:50;;;;;;;13.82;9.15;;;1.50;84.00;;;;;;5031848;28;20057;-61
2021/01/07 04:51:16;;;;;;;12.10;8.77;;;1.50;84.10;;;;;;5021046;28;20026;-57
2021/01/07 04:53:42;;;;;;;11.57;8.27;;;1.60;83.50;;;;;;5012274;28;20034;-61
2021/01/07 04:56:08;;;;;;;12.25;8.57;;;1.60;83.70;;;;;;5028416;28;20492;-59
2021/01/07 04:58:33;;;;;;;13.05;9.20;;;1.60;83.40;;;;;;5019586;28;20092;-61
2021/01/07 05:00:59;;;;;;;13.10;9.55;;;1.50;83.50;;;;;;5028551;28;20041;-58
2021/01/07 05:03:30;;;;;;;13.23;9.00;;;1.70;82.90;;;;;;5030547;28;20690;-58
2021/01/07 05:05:57;;;;;;;12.13;9.02;;;1.70;82.50;;;;;;4997139;28;20120;-61
2021/01/07 05:08:23;;;;;;;14.20;9.45;;;1.70;82.90;;;;;;5027547;28;20172;-59
2021/01/07 05:10:50;;;;;;;13.23;8.52;;;1.60;83.00;;;;;;5001227;28;20120;-60
2021/01/07 05:13:20;;;;;;;13.32;8.52;;;1.70;82.20;;;;;;5031503;28;20036;-57
2021/01/07 05:15:46;;;;;;;15.43;9.32;;;1.90;81.80;;;;;;5031084;28;20034;-58
2021/01/07 05:18:12;;;;;;;11.90;8.55;;;1.70;82.60;;;;;;5031230;28;20047;-57
2021/01/07 05:20:39;;;;;;;12.25;8.75;;;1.70;82.20;;;;;;5032954;28;20029;-61
2021/01/07 05:23:06;;;;;;;12.95;8.90;;;1.80;82.00;;;;;;5015338;28;20037;-55
2021/01/07 05:25:32;;;;;;;13.43;8.90;;;1.80;82.00;;;;;;5017831;28;20396;-61
2021/01/07 05:28:02;;;;;;;13.88;9.27;;;1.70;82.60;;;;;;5009926;28;20026;-60
2021/01/07 05:30:29;;;;;;;14.45;8.73;;;1.70;82.20;;;;;;4998595;28;20045;-61
2021/01/07 05:33:02;;;;;;;12.88;9.25;;;1.70;82.40;;;;;;5027088;28;20037;-61
2021/01/07 05:35:28;;;;;;;12.63;8.45;;;1.70;83.20;;;;;;5018520;28;20065;-63
2021/01/07 05:37:55;;;;;;;12.43;8.88;;;1.70;82.50;;;;;;5027516;28;20073;-60
2021/01/07 05:40:22;;;;;;;15.50;9.52;;;1.70;82.80;;;;;;4997777;28;20037;-61
2021/01/07 05:42:48;;;;;;;12.65;8.88;;;1.70;82.70;;;;;;5025891;28;20088;-58
2021/01/07 05:45:16;;;;;;;12.77;9.02;;;1.70;82.50;;;;;;5031415;28;20037;-58
2021/01/07 05:47:48;;;;;;;14.18;9.02;;;1.70;82.70;;;;;;5017563;28;20537;-57
2021/01/07 05:50:14;;;;;;;12.30;8.75;;;1.70;82.50;;;;;;5029098;28;20056;-58
2021/01/07 05:52:45;;;;;;;13.05;8.90;;;1.80;82.60;;;;;;5017892;28;20163;-60
2021/01/07 05:55:12;;;;;;;13.25;8.90;;;1.80;83.40;;;;;;5021964;28;20596;-61
2021/01/07 05:57:39;;;;;;;12.82;9.13;;;1.90;82.60;;;;;;5017343;28;20042;-60
2021/01/07 06:00:23;;;;;;;11.77;8.45;;;1.80;83.20;;;;;;5021825;28;20515;-63
2021/01/07 06:02:54;;;;;;;13.40;9.25;;;1.70;83.30;;;;;;5006167;28;20451;-61
2021/01/07 06:05:21;;;;;;;13.68;9.45;;;1.70;83.50;;;;;;5023594;28;20425;-59
2021/01/07 06:07:48;;;;;;;12.60;8.85;;;1.70;83.50;;;;;;5016042;28;20409;-59
2021/01/07 06:10:16;;;;;;;11.40;8.05;;;1.70;83.00;;;;;;5027432;28;20049;-56
2021/01/07 06:12:42;;;;;;;11.95;8.73;;;1.70;82.70;;;;;;5018473;28;20049;-59
2021/01/07 06:15:13;;;;;;;13.93;9.05;;;1.60;83.10;;;;;;5003349;28;20632;-59
2021/01/07 06:17:39;;;;;;;13.18;8.80;;;1.50;83.90;;;;;;5026012;28;20034;-56
2021/01/07 06:20:23;;;;;;;13.07;8.65;;;1.70;82.60;;;;;;5030998;28;20072;-61
2021/01/07 06:22:50;;;;;;;12.43;8.18;;;1.70;82.60;;;;;;5024898;28;20069;-57
2021/01/07 06:25:17;;;;;;;10.82;7.97;;;1.70;82.30;;;;;;5000122;28;20029;-61
2021/01/07 06:27:44;;;;;;;12.85;8.90;;;1.60;83.20;;;;;;5009595;28;20033;-60
2021/01/07 06:30:10;;;;;;;11.45;7.55;;;1.60;82.70;;;;;;5032259;28;20147;-61
2021/01/07 06:32:36;;;;;;;10.48;8.20;;;1.60;82.60;;;;;;5034327;28;20583;-63
2021/01/07 06:35:07;;;;;;;9.98;7.60;;;1.70;82.00;;;;;;5024669;28;20076;-64
2021/01/07 06:37:37;;;;;;;12.43;8.20;;;1.60;82.20;;;;;;5014605;28;20069;-62
2021/01/07 06:40:05;;;;;;;11.40;8.15;;;1.70;82.00;;;;;;5030162;28;20088;-60
2021/01/07 06:42:34;;;;;;;11.05;7.32;;;1.80;81.80;;;;;;5019434;28;20141;-61
2021/01/07 06:45:02;;;;;;;12.18;7.72;;;1.80;81.60;;;;;;5024868;28;20109;-61
2021/01/07 06:47:30;;;;;;;11.35;7.43;;;1.80;82.10;;;;;;5010014;28;20037;-61
2021/01/07 06:50:00;;;;;;;10.90;7.47;;;1.70;82.20;;;;;;5016463;28;20396;-60
2021/01/07 06:52:37;;;;;;;13.88;8.52;;;1.80;81.90;;;;;;4981840;28;20037;-58
2021/01/07 06:55:04;;;;;;;10.30;8.40;;;1.80;81.50;;;;;;5026898;28;20048;-61
2021/01/07 06:57:49;;;;;;;14.30;9.00;;;1.80;81.80;;;;;;5021185;28;20068;-60
2021/01/07 07:00:16;;;;;;;13.90;9.15;;;1.90;81.50;;;;;;5032686;28;20041;-61
2021/01/07 07:02:58;;;;;;;12.20;8.43;;;1.90;81.70;;;;;;5027818;28;20050;-63
2021/01/07 07:05:25;;;;;;;12.38;8.20;;;1.90;81.60;;;;;;5016258;28;20034;-61
2021/01/07 07:08:03;;;;;;;12.85;8.63;;;1.90;81.90;;;;;;5029997;28;20040;-59
2021/01/07 07:10:55;;;;;;;16.08;8.55;;;1.90;82.00;;;;;;5011242;28;20068;-61
2021/01/07 07:13:25;;;;;;;13.52;9.00;;;2.00;82.10;;;;;;5033404;28;20049;-59
2021/01/07 07:15:51;;;;;;;11.65;8.23;;;1.90;82.00;;;;;;5017594;28;20095;-60
2021/01/07 07:18:37;;;;;;;13.48;9.02;;;1.80;82.80;;;;;;5030444;28;20042;-61
2021/01/07 07:21:16;;;;;;;13.43;9.25;;;1.80;82.50;;;;;;5022456;28;20108;-61
2021/01/07 07:23:46;;;;;;;13.80;8.88;;;1.70;83.40;;;;;;5028667;28;20061;-58
2021/01/07 07:26:13;;;;;;;14.38;10.00;;;1.70;83.50;;;;;;4999886;28;20072;-57
2021/01/07 07:28:44;;;;;;;17.00;9.23;;;1.80;83.20;;;;;;5010038;28;20038;-60
2021/01/07 07:31:10;;;;;;;14.02;9.43;;;1.70;83.50;;;;;;5031677;28;20136;-60
2021/01/07 07:33:39;;;;;;;14.68;10.68;;;1.70;83.70;;;;;;5019766;28;20497;-58
2021/01/07 07:36:07;;;;;;;15.30;9.50;;;1.70;83.50;;;;;;5030969;28;20046;-59
2021/01/07 07:38:37;;;;;;;13.00;9.23;;;1.70;83.70;;;;;;5028235;28;20421;-57
2021/01/07 07:41:09;;;;;;;14.43;10.10;;;1.80;83.50;;;;;;5028498;28;20038;-62
2021/01/07 07:43:35;;;;;;;15.68;10.48;;;1.80;83.30;;;;;;5019245;28;20117;-63
2021/01/07 07:46:02;;;;;;;17.30;11.63;;;1.90;83.10;;;;;;5029066;28;20037;-62
2021/01/07 07:48:29;;;;;;;17.20;11.75;;;1.70;83.80;;;;;;5020334;28;20057;-58
2021/01/07 07:51:09;;;;;;;16.23;10.70;;;1.70;84.10;;;;;;5024620;28;20048;-63
2021/01/07 07:53:37;;;;;;;14.57;10.18;;;1.70;83.80;;;;;;5026783;28;20683;-60
2021/01/07 07:56:03;;;;;;;15.30;10.88;;;1.70;84.00;;;;;;5029665;28;20056;-59
2021/01/07 07:58:30;;;;;;;15.57;11.10;;;1.70;84.10;;;;;;5028588;28;20069;-59
2021/01/07 08:00:59;;;;;;;15.95;10.57;;;1.70;83.80;;;;;;5027933;28;20067;-62
2021/01/07 08:03:29;;;;;;;16.55;10.35;;;1.80;83.50;;;;;;5030270;28;20029;-61
2021/01/07 08:05:59;;;;;;;16.35;10.43;;;1.90;83.30;;;;;;5032100;28;20507;-60
2021/01/07 08:08:27;;;;;;;13.68;9.88;;;1.80;83.60;;;;;;5022433;28;20033;-60
2021/01/07 08:10:54;;;;;;;15.63;10.43;;;1.80;83.50;;;;;;5033064;28;20037;-64
2021/01/07 08:13:24;;;;;;;16.13;10.65;;;1.80;83.20;;;;;;5028978;28;20040;-62
2021/01/07 08:15:55;;;;;;;16.23;10.80;;;1.80;83.10;;;;;;5032419;28;20052;-61
2021/01/07 08:18:29;;;;;;;15.15;10.40;;;1.80;83.30;;;;;;5033048;28;20030;-60
2021/01/07 08:21:06;;;;;;;16.33;10.98;;;2.00;83.00;;;;;;4984231;28;20030;-61
2021/01/07 08:23:32;;;;;;;17.20;10.48;;;1.90;82.80;;;;;;5034456;28;20030;-59
2021/01/07 08:25:59;;;;;;;16.10;11.50;;;1.80;83.40;;;;;;5017198;28;20036;-61
2021/01/07 08:28:43;;;;;;;16.90;10.88;;;1.90;83.10;;;;;;5016898;28;20018;-61
2021/01/07 08:31:14;;;;;;;18.42;11.05;;;1.90;82.60;;;;;;5034868;28;20041;-61
2021/01/07 08:33:40;;;;;;;17.20;10.45;;;1.90;82.70;;;;;;5033720;28;20045;-60
2021/01/07 08:36:11;;;;;;;13.88;9.90;;;1.90;82.30;;;;;;5015229;28;20033;-62
2021/01/07 08:38:38;;;;;;;16.23;11.30;;;1.90;82.40;;;;;;5033007;28;20052;-62
2021/01/07 08:41:16;;;;;;;18.25;11.60;;;2.00;82.60;;;;;;5015102;28;20084;-58
2021/01/07 08:43:42;;;;;;;16.60;11.02;;;2.00;82.60;;;;;;5032100;28;20041;-60
2021/01/07 08:46:18;;;;;;;16.85;10.57;;;1.90;82.80;;;;;;5014479;28;20136;-58
2021/01/07 08:48:45;;;;;;;18.95;11.75;;;2.00;82.60;;;;;;5030740;28;20140;-60
2021/01/07 08:51:21;;;;;;;16.85;11.05;;;2.00;82.60;;;;;;5014459;28;20055;-61
2021/01/07 08:53:51;;;;;;;18.25;12.02;;;1.90;82.90;;;;;;5014117;28;20480;-60
2021/01/07 08:56:29;;;;;;;20.67;12.75;;;1.90;83.70;;;;;;5032003;28;20148;-62
2021/01/07 08:59:17;;;;;;;20.75;12.55;;;2.00;82.70;;;;;;5014227;28;20087;-61
2021/01/07 09:01:44;;;;;;;17.92;11.93;;;2.00;82.90;;;;;;5012576;28;20033;-65
2021/01/07 09:04:32;;;;;;;18.55;12.10;;;2.00;82.70;;;;;;5021581;28;20083;-62
2021/01/07 09:06:57;;;;;;;16.73;10.98;;;1.90;83.40;;;;;;5014183;28;20084;-62
2021/01/07 09:09:24;;;;;;;18.38;11.85;;;1.90;83.50;;;;;;5031214;28;20037;-61
2021/01/07 09:11:50;;;;;;;20.15;12.75;;;2.10;83.30;;;;;;5014449;28;20047;-59
2021/01/07 09:14:16;;;;;;;17.33;11.52;;;2.00;82.80;;;;;;5031833;28;20453;-62
2021/01/07 09:16:59;;;;;;;19.65;12.45;;;1.90;83.10;;;;;;5031929;28;20041;-63
2021/01/07 09:19:25;;;;;;;20.77;12.60;;;2.00;83.20;;;;;;5032002;28;20508;-60
2021/01/07 09:22:01;;;;;;;18.85;12.02;;;2.10;83.00;;;;;;5032313;28;20048;-58
2021/01/07 09:24:31;;;;;;;20.23;12.63;;;2.30;82.10;;;;;;5032805;28;20080;-59
2021/01/07 09:27:08;;;;;;;21.63;12.68;;;2.30;81.80;;;;;;5026877;28;20183;-60
2021/01/07 09:29:34;;;;;;;19.73;11.75;;;2.10;82.80;;;;;;5006914;28;20033;-63
2021/01/07 09:31:59;;;;;;;18.92;12.27;;;2.10;82.70;;;;;;5029753;28;20111;-61
2021/01/07 09:34:25;;;;;;;23.45;15.20;;;2.10;83.10;;;;;;5012385;28;20393;-58
2021/01/07 09:36:50;;;;;;;24.83;14.25;;;2.20;82.70;;;;;;5031661;28;20033;-60
2021/01/07 09:39:16;;;;;;;21.05;12.70;;;2.20;83.10;;;;;;5031427;28;20026;-64
2021/01/07 09:41:42;;;;;;;20.52;13.23;;;2.00;83.10;;;;;;5030822;28;20136;-61
2021/01/07 09:44:07;;;;;;;20.13;12.57;;;2.10;83.40;;;;;;5031505;28;20049;-61
2021/01/07 09:46:33;;;;;;;18.75;12.57;;;2.20;82.70;;;;;;5031665;28;20042;-60
2021/01/07 09:48:58;;;;;;;19.15;12.95;;;2.30;82.20;;;;;;5033277;28;20038;-60
2021/01/07 09:51:24;;;;;;;20.23;12.43;;;2.50;81.70;;;;;;5031273;28;20034;-61
2021/01/07 09:53:50;;;;;;;17.13;11.63;;;2.70;80.80;;;;;;5029649;28;20527;-61
2021/01/07 09:56:16;;;;;;;19.55;12.80;;;2.70;81.00;;;;;;5030003;28;20120;-57
2021/01/07 09:58:42;;;;;;;19.40;12.93;;;2.70;81.00;;;;;;5030505;28;20049;-61
2021/01/07 10:01:07;;;;;;;17.83;12.27;;;2.70;81.00;;;;;;5005470;28;20145;-61
2021/01/07 10:03:33;;;;;;;20.92;13.52;;;2.60;81.30;;;;;;5030260;28;20035;-66
2021/01/07 10:05:59;;;;;;;18.05;12.35;;;2.60;80.90;;;;;;5033443;28;20073;-61
2021/01/07 10:08:24;;;;;;;22.20;13.25;;;2.70;81.10;;;;;;5034661;28;20071;-59
2021/01/07 10:10:50;;;;;;;18.95;12.98;;;2.70;81.40;;;;;;5035198;28;20092;-58
2021/01/07 10:13:15;;;;;;;20.30;12.35;;;3.00;80.40;;;;;;5035720;28;20108;-61
2021/01/07 10:15:41;;;;;;;20.05;12.73;;;3.00;80.00;;;;;;5035101;28;20034;-59
2021/01/07 10:18:06;;;;;;;17.30;12.23;;;3.00;79.90;;;;;;5035018;28;20392;-62
2021/01/07 10:20:32;;;;;;;18.40;12.20;;;2.90;79.70;;;;;;5034568;28;20067;-60
2021/01/07 10:22:58;;;;;;;20.00;13.10;;;2.90;79.30;;;;;;5034384;28;20485;-58
2021/01/07 10:25:24;;;;;;;22.05;13.68;;;2.90;79.10;;;;;;5029913;28;20033;-61
2021/01/07 10:27:50;;;;;;;21.15;13.70;;;2.80;79.20;;;;;;5016846;28;20034;-61
2021/01/07 10:30:17;;;;;;;22.60;13.05;;;2.80;79.60;;;;;;5034467;28;20116;-59
2021/01/07 10:32:43;;;;;;;22.48;13.30;;;2.80;79.80;;;;;;5033549;28;20041;-61
2021/01/07 10:35:09;;;;;;;18.50;13.95;;;2.80;79.60;;;;;;5030006;28;20666;-59
2021/01/07 10:37:38;;;;;;;18.67;13.40;;;2.70;79.90;;;;;;5039511;28;20041;-63
2021/01/07 10:40:04;;;;;;;20.45;12.80;;;2.70;80.30;;;;;;5050399;28;20112;-62
2021/01/07 10:42:30;;;;;;;18.77;12.00;;;2.70;80.70;;;;;;5017263;28;20038;-62
2021/01/07 10:44:56;;;;;;;17.48;11.77;;;2.80;79.40;;;;;;5016094;28;20156;-64
2021/01/07 10:47:26;;;;;;;18.40;12.15;;;2.70;78.70;;;;;;5016717;28;20091;-62
2021/01/07 10:49:54;;;;;;;16.48;10.95;;;2.60;78.90;;;;;;5033088;28;20511;-60
2021/01/07 10:52:53;;;;;;;15.98;10.65;;;2.60;79.20;;;;;;5034332;28;20041;-63
2021/01/07 10:55:29;;;;;;;19.38;11.55;;;2.60;79.00;;;;;;5029151;28;20156;-58
2021/01/07 10:58:42;;;;;;;17.92;10.90;;;2.70;79.00;;;;;;5034451;28;20541;-62
2021/01/07 11:01:26;;;;;;;15.10;10.50;;;2.70;78.60;;;;;;5001225;28;20041;-60
2021/01/07 11:04:25;;;;;;;15.23;10.77;;;2.70;78.10;;;;;;5034037;28;20034;-62
2021/01/07 11:07:19;;;;;;;17.40;11.60;;;2.80;78.80;;;;;;5016697;28;20585;-62
2021/01/07 11:09:50;;;;;;;18.00;10.77;;;2.80;78.90;;;;;;5034217;28;20362;-62
2021/01/07 11:12:22;;;;;;;18.38;10.88;;;2.70;77.90;;;;;;5034752;28;20041;-60
2021/01/07 11:14:59;;;;;;;19.02;12.60;;;2.70;78.60;;;;;;5033896;28;20477;-60
2021/01/07 11:17:27;;;;;;;18.83;12.35;;;2.80;79.20;;;;;;5034437;28;20041;-61
2021/01/07 11:19:54;;;;;;;18.00;11.52;;;2.80;78.80;;;;;;5033346;28;20111;-61
2021/01/07 11:22:27;;;;;;;18.33;12.45;;;2.80;78.00;;;;;;5033470;28;20037;-59
2021/01/07 11:24:53;;;;;;;19.98;13.07;;;2.80;78.60;;;;;;5016229;28;20369;-62
2021/01/07 11:27:22;;;;;;;19.02;12.27;;;2.70;79.30;;;;;;5033549;28;20033;-59
2021/01/07 11:29:48;;;;;;;19.58;12.75;;;2.80;79.40;;;;;;5009170;28;20057;-61
2021/01/07 11:32:14;;;;;;;21.35;13.60;;;2.90;79.50;;;;;;5009308;28;20095;-58
2021/01/07 11:34:40;;;;;;;23.45;13.90;;;3.00;79.10;;;;;;5033505;28;20033;-59
2021/01/07 11:37:43;;;;;;;20.73;12.88;;;2.90;78.60;;;;;;5034378;28;20049;-60
2021/01/07 11:40:18;;;;;;;24.63;13.93;;;2.90;79.20;;;;;;5033804;28;20048;-59
2021/01/07 11:42:48;;;;;;;21.60;13.63;;;2.90;78.80;;;;;;5015745;28;20095;-59
2021/01/07 11:45:25;;;;;;;21.65;14.38;;;2.80;79.50;;;;;;5032988;28;20029;-58
2021/01/07 11:47:54;;;;;;;24.50;14.93;;;2.90;79.70;;;;;;5031826;28;20053;-60
2021/01/07 11:50:23;;;;;;;24.15;16.00;;;2.80;79.70;;;;;;5033509;28;20049;-61
2021/01/07 11:52:50;;;;;;;22.33;13.65;;;2.90;79.40;;;;;;5015097;28;20046;-61
2021/01/07 11:55:16;;;;;;;21.10;13.27;;;2.80;79.80;;;;;;5042652;28;20029;-62
2021/01/07 11:57:45;;;;;;;26.02;15.38;;;2.80;80.10;;;;;;5037210;28;20439;-61
2021/01/07 12:00:13;;;;;;;20.98;13.50;;;2.70;80.10;;;;;;5029607;28;20034;-59
2021/01/07 12:02:41;;;;;;;22.30;13.43;;;2.70;80.10;;;;;;5025745;28;20063;-57
2021/01/07 12:05:08;;;;;;;20.83;13.63;;;2.70;80.70;;;;;;5032620;28;20033;-59
2021/01/07 12:08:02;;;;;;;21.23;13.63;;;2.80;79.70;;;;;;5032211;28;20038;-58
2021/01/07 12:10:29;;;;;;;21.85;14.10;;;2.70;80.20;;;;;;5033687;28;20037;-61
2021/01/07 12:13:06;;;;;;;20.45;13.13;;;2.70;80.90;;;;;;5034083;28;20480;-61
2021/01/07 12:15:34;;;;;;;22.20;14.00;;;2.60;80.80;;;;;;5032949;28;20041;-58
2021/01/07 12:18:01;;;;;;;20.50;13.57;;;2.60;81.00;;;;;;5015025;28;20087;-63
2021/01/07 12:20:35;;;;;;;21.90;13.30;;;2.60;80.40;;;;;;5015206;28;20029;-57
2021/01/07 12:23:03;;;;;;;24.65;14.57;;;2.70;80.60;;;;;;5032331;28;20052;-61
2021/01/07 12:25:30;;;;;;;23.02;13.52;;;2.60;80.10;;;;;;5028036;28;20034;-62
2021/01/07 12:27:57;;;;;;;20.60;12.63;;;2.70;79.90;;;;;;5010471;28;20041;-60
2021/01/07 12:30:24;;;;;;;24.33;14.10;;;2.80;80.30;;;;;;5021052;28;20462;-61
2021/01/07 12:33:08;;;;;;;23.20;13.40;;;2.70;80.70;;;;;;4976424;28;20041;-59
2021/01/07 12:35:46;;;;;;;24.02;13.30;;;2.70;80.70;;;;;;5011014;28;20038;-60
2021/01/07 12:38:31;;;;;;;21.83;13.43;;;2.70;80.30;;;;;;5029085;28;20083;-57
2021/01/07 12:41:03;;;;;;;22.40;13.27;;;2.60;81.10;;;;;;5031134;28;20037;-64
2021/01/07 12:43:33;;;;;;;21.02;13.68;;;2.60;80.60;;;;;;5012443;28;20042;-60
2021/01/07 12:46:02;;;;;;;20.38;12.73;;;2.70;80.30;;;;;;5029586;28;20404;-60
2021/01/07 12:48:31;;;;;;;22.73;13.68;;;2.60;80.70;;;;;;5026011;28;20052;-56